sensor_id;sensor_type;location;lat;lon;timestamp;temperature;humidity
5344;DHT22;2694;48.954;8.928;2023-07-31T00:01:47;15.30;99.90
5344;DHT22;2694;48.954;8.928;2023-07-31T00:04:14;15.20;99.90
5344;DHT22;2694;48.954;8.928;2023-07-31T00:06:41;15.20;99.90
5344;DHT22;2694;48.954;8.928;2023-07-31T00:09:09;15.20;99.90
5344;DHT22;2694;48.954;8.928;2023-07-31T00:11:39;15.10;99.90
5344;DHT22;2694;48.954;8.928;2023-07-31T00:14:06;15.30;99.90
5344;DHT22;2694;48.954;8.928;2023-07-31T00:16:33;15.10;99.90
5344;DHT22;2694;48.954;8.928;2023-07-31T00:19:00;15.30;99.90
5344;DHT22;2694;48.954;8.928;2023-07-31T00:21:27;15.20;99.90
5344;DHT22;2694;48.954;8.928;2023-07-31T00:23:54;15.00;99.90
5344;DHT22;2694;48.954;8.928;2023-07-31T00:26:22;15.00;99.90
5344;DHT22;2694;48.954;8.928;2023-07-31T00:28:49;14.90;99.90
5344;DHT22;2694;48.954;8.928;2023-07-31T00:31:16;14.90;99.90
5344;DHT22;2694;48.954;8.928;2023-07-31T00:33:43;14.80;99.90
5344;DHT22;2694;48.954;8.928;2023-07-31T00:36:10;14.80;99.90
5344;DHT22;2694;48.954;8.928;2023-07-31T00:38:37;14.80;99.90
5344;DHT22;2694;48.954;8.928;2023-07-31T00:41:04;14.80;99.90
5344;DHT22;2694;48.954;8.928;2023-07-31T00:43:32;14.70;99.90
5344;DHT22;2694;48.954;8.928;2023-07-31T00:45:59;14.70;99.90
5344;DHT22;2694;48.954;8.928;2023-07-31T00:48:26;14.70;99.90
5344;DHT22;2694;48.954;8.928;2023-07-31T00:50:53;14.80;99.90
5344;DHT22;2694;48.954;8.928;2023-07-31T00:53:20;14.80;99.90
5344;DHT22;2694;48.954;8.928;2023-07-31T00:55:47;14.80;99.90
5344;DHT22;2694;48.954;8.928;2023-07-31T00:58:14;14.80;99.90
5344;DHT22;2694;48.954;8.928;2023-07-31T01:00:42;14.80;99.90
5344;DHT22;2694;48.954;8.928;2023-07-31T01:03:09;14.80;99.90
5344;DHT22;2694;48.954;8.928;2023-07-31T01:05:43;15.00;99.90
5344;DHT22;2694;48.954;8.928;2023-07-31T01:08:18;15.00;99.90
5344;DHT22;2694;48.954;8.928;2023-07-31T01:10:56;15.00;99.90
5344;DHT22;2694;48.954;8.928;2023-07-31T01:13:24;14.90;99.90
5344;DHT22;2694;48.954;8.928;2023-07-31T01:15:52;14.90;99.90
5344;DHT22;2694;48.954;8.928;2023-07-31T01:18:19;15.00;99.90
5344;DHT22;2694;48.954;8.928;2023-07-31T01:20:54;15.10;99.90
5344;DHT22;2694;48.954;8.928;2023-07-31T01:24:01;15.00;99.90
5344;DHT22;2694;48.954;8.928;2023-07-31T01:26:34;15.00;99.90
5344;DHT22;2694;48.954;8.928;2023-07-31T01:29:06;15.00;99.90
5344;DHT22;2694;48.954;8.928;2023-07-31T01:31:35;15.00;99.90
5344;DHT22;2694;48.954;8.928;2023-07-31T01:34:06;15.00;99.90
5344;DHT22;2694;48.954;8.928;2023-07-31T01:36:34;14.90;99.90
5344;DHT22;2694;48.954;8.928;2023-07-31T01:39:02;14.90;99.90
5344;DHT22;2694;48.954;8.928;2023-07-31T01:41:30;14.90;99.90
5344;DHT22;2694;48.954;8.928;2023-07-31T01:43:57;14.90;99.90
5344;DHT22;2694;48.954;8.928;2023-07-31T01:46:24;14.80;99.90
5344;DHT22;2694;48.954;8.928;2023-07-31T01:48:51;14.80;99.90
5344;DHT22;2694;48.954;8.928;2023-07-31T01:51:18;14.70;99.90
5344;DHT22;2694;48.954;8.928;2023-07-31T01:53:45;14.80;99.90
5344;DHT22;2694;48.954;8.928;2023-07-31T01:56:12;14.80;99.90
5344;DHT22;2694;48.954;8.928;2023-07-31T01:58:40;14.70;99.90
5344;DHT22;2694;48.954;8.928;2023-07-31T02:01:07;14.80;99.90
5344;DHT22;2694;48.954;8.928;2023-07-31T02:03:34;14.70;99.90
5344;DHT22;2694;48.954;8.928;2023-07-31T02:06:01;14.70;99.90
5344;DHT22;2694;48.954;8.928;2023-07-31T02:08:28;14.80;99.90
5344;DHT22;2694;48.954;8.928;2023-07-31T02:10:56;14.90;99.90
5344;DHT22;2694;48.954;8.928;2023-07-31T02:13:23;15.00;99.90
5344;DHT22;2694;48.954;8.928;2023-07-31T02:15:51;15.00;99.90
5344;DHT22;2694;48.954;8.928;2023-07-31T02:18:18;15.00;99.90
5344;DHT22;2694;48.954;8.928;2023-07-31T02:20:49;15.00;99.90
5344;DHT22;2694;48.954;8.928;2023-07-31T02:23:16;15.00;99.90
5344;DHT22;2694;48.954;8.928;2023-07-31T02:25:43;14.90;99.90
5344;DHT22;2694;48.954;8.928;2023-07-31T02:28:10;14.90;99.90
5344;DHT22;2694;48.954;8.928;2023-07-31T02:30:37;15.00;99.90
5344;DHT22;2694;48.954;8.928;2023-07-31T02:33:06;15.00;99.90
5344;DHT22;2694;48.954;8.928;2023-07-31T02:35:33;15.10;99.90
5344;DHT22;2694;48.954;8.928;2023-07-31T02:38:00;15.10;99.90
5344;DHT22;2694;48.954;8.928;2023-07-31T02:40:26;15.20;99.90
5344;DHT22;2694;48.954;8.928;2023-07-31T02:42:53;15.10;99.90
5344;DHT22;2694;48.954;8.928;2023-07-31T02:45:20;15.00;99.90
5344;DHT22;2694;48.954;8.928;2023-07-31T02:47:47;14.90;99.90
5344;DHT22;2694;48.954;8.928;2023-07-31T02:50:16;14.90;99.90
5344;DHT22;2694;48.954;8.928;2023-07-31T02:52:43;14.80;99.90
5344;DHT22;2694;48.954;8.928;2023-07-31T02:55:09;14.80;99.90
5344;DHT22;2694;48.954;8.928;2023-07-31T02:57:36;14.80;99.90
5344;DHT22;2694;48.954;8.928;2023-07-31T03:00:04;14.80;99.90
5344;DHT22;2694;48.954;8.928;2023-07-31T03:02:32;14.90;99.90
5344;DHT22;2694;48.954;8.928;2023-07-31T03:04:59;14.90;99.90
5344;DHT22;2694;48.954;8.928;2023-07-31T03:07:27;15.10;99.90
5344;DHT22;2694;48.954;8.928;2023-07-31T03:09:55;15.10;99.90
5344;DHT22;2694;48.954;8.928;2023-07-31T03:12:23;15.10;99.90
5344;DHT22;2694;48.954;8.928;2023-07-31T03:14:50;15.10;99.90
5344;DHT22;2694;48.954;8.928;2023-07-31T03:17:17;15.20;99.90
5344;DHT22;2694;48.954;8.928;2023-07-31T03:19:44;15.10;99.90
5344;DHT22;2694;48.954;8.928;2023-07-31T03:22:11;15.10;99.90
5344;DHT22;2694;48.954;8.928;2023-07-31T03:24:39;15.00;99.90
5344;DHT22;2694;48.954;8.928;2023-07-31T03:27:06;15.00;99.90
5344;DHT22;2694;48.954;8.928;2023-07-31T03:29:33;14.90;99.90
5344;DHT22;2694;48.954;8.928;2023-07-31T03:32:00;15.00;99.90
5344;DHT22;2694;48.954;8.928;2023-07-31T03:34:27;14.90;99.90
5344;DHT22;2694;48.954;8.928;2023-07-31T03:36:54;14.80;99.90
5344;DHT22;2694;48.954;8.928;2023-07-31T03:39:21;14.80;99.90
5344;DHT22;2694;48.954;8.928;2023-07-31T03:41:49;14.80;99.90
5344;DHT22;2694;48.954;8.928;2023-07-31T03:44:16;14.80;99.90
5344;DHT22;2694;48.954;8.928;2023-07-31T03:46:43;14.80;99.90
5344;DHT22;2694;48.954;8.928;2023-07-31T03:49:10;14.80;99.90
5344;DHT22;2694;48.954;8.928;2023-07-31T03:51:37;14.80;99.90
5344;DHT22;2694;48.954;8.928;2023-07-31T03:54:04;14.80;99.90
5344;DHT22;2694;48.954;8.928;2023-07-31T03:56:33;14.90;99.90
5344;DHT22;2694;48.954;8.928;2023-07-31T03:59:01;14.90;99.90
5344;DHT22;2694;48.954;8.928;2023-07-31T04:01:28;14.90;99.90
5344;DHT22;2694;48.954;8.928;2023-07-31T04:03:55;15.00;99.90
5344;DHT22;2694;48.954;8.928;2023-07-31T04:06:22;15.10;99.90
5344;DHT22;2694;48.954;8.928;2023-07-31T04:08:49;15.00;99.90
5344;DHT22;2694;48.954;8.928;2023-07-31T04:11:16;15.10;99.90
5344;DHT22;2694;48.954;8.928;2023-07-31T04:13:43;15.20;99.90
5344;DHT22;2694;48.954;8.928;2023-07-31T04:16:11;15.20;99.90
5344;DHT22;2694;48.954;8.928;2023-07-31T04:18:38;15.40;99.90
5344;DHT22;2694;48.954;8.928;2023-07-31T04:21:05;15.50;99.90
5344;DHT22;2694;48.954;8.928;2023-07-31T04:23:32;15.70;99.90
5344;DHT22;2694;48.954;8.928;2023-07-31T04:25:59;15.80;99.90
5344;DHT22;2694;48.954;8.928;2023-07-31T04:28:26;15.80;99.90
5344;DHT22;2694;48.954;8.928;2023-07-31T04:30:53;15.80;99.90
5344;DHT22;2694;48.954;8.928;2023-07-31T04:33:21;16.00;99.90
5344;DHT22;2694;48.954;8.928;2023-07-31T04:35:50;16.10;99.90
5344;DHT22;2694;48.954;8.928;2023-07-31T04:38:18;16.20;99.90
5344;DHT22;2694;48.954;8.928;2023-07-31T04:40:45;16.20;99.90
5344;DHT22;2694;48.954;8.928;2023-07-31T04:43:12;16.30;99.90
5344;DHT22;2694;48.954;8.928;2023-07-31T04:45:41;16.30;99.90
5344;DHT22;2694;48.954;8.928;2023-07-31T04:48:09;16.30;99.90
5344;DHT22;2694;48.954;8.928;2023-07-31T04:50:37;16.50;99.90
5344;DHT22;2694;48.954;8.928;2023-07-31T04:53:04;16.40;99.90
5344;DHT22;2694;48.954;8.928;2023-07-31T04:55:31;16.40;99.90
5344;DHT22;2694;48.954;8.928;2023-07-31T04:57:59;16.40;99.90
5344;DHT22;2694;48.954;8.928;2023-07-31T05:00:26;16.40;99.90
5344;DHT22;2694;48.954;8.928;2023-07-31T05:02:53;16.40;99.90
5344;DHT22;2694;48.954;8.928;2023-07-31T05:05:19;16.50;99.90
5344;DHT22;2694;48.954;8.928;2023-07-31T05:07:48;16.60;99.90
5344;DHT22;2694;48.954;8.928;2023-07-31T05:10:15;16.50;99.90
5344;DHT22;2694;48.954;8.928;2023-07-31T05:12:42;16.60;99.90
5344;DHT22;2694;48.954;8.928;2023-07-31T05:15:09;16.70;99.90
5344;DHT22;2694;48.954;8.928;2023-07-31T05:17:36;16.80;99.90
5344;DHT22;2694;48.954;8.928;2023-07-31T05:20:04;16.80;99.90
5344;DHT22;2694;48.954;8.928;2023-07-31T05:22:34;16.90;99.90
5344;DHT22;2694;48.954;8.928;2023-07-31T05:25:02;17.00;99.90
5344;DHT22;2694;48.954;8.928;2023-07-31T05:27:30;17.10;99.90
5344;DHT22;2694;48.954;8.928;2023-07-31T05:29:58;17.20;99.90
5344;DHT22;2694;48.954;8.928;2023-07-31T05:32:25;17.40;99.90
5344;DHT22;2694;48.954;8.928;2023-07-31T05:34:52;17.40;99.90
5344;DHT22;2694;48.954;8.928;2023-07-31T05:37:19;17.50;99.90
5344;DHT22;2694;48.954;8.928;2023-07-31T05:39:46;17.60;99.90
5344;DHT22;2694;48.954;8.928;2023-07-31T05:42:14;17.60;99.90
5344;DHT22;2694;48.954;8.928;2023-07-31T05:44:41;17.80;99.90
5344;DHT22;2694;48.954;8.928;2023-07-31T05:47:09;17.90;99.90
5344;DHT22;2694;48.954;8.928;2023-07-31T05:49:36;18.10;99.90
5344;DHT22;2694;48.954;8.928;2023-07-31T05:52:03;18.20;99.90
5344;DHT22;2694;48.954;8.928;2023-07-31T05:54:32;18.10;99.90
5344;DHT22;2694;48.954;8.928;2023-07-31T05:56:59;18.20;99.90
5344;DHT22;2694;48.954;8.928;2023-07-31T05:59:27;18.40;99.90
5344;DHT22;2694;48.954;8.928;2023-07-31T06:01:54;18.20;99.90
5344;DHT22;2694;48.954;8.928;2023-07-31T06:04:21;18.20;99.90
5344;DHT22;2694;48.954;8.928;2023-07-31T06:06:51;18.20;99.90
5344;DHT22;2694;48.954;8.928;2023-07-31T06:09:18;18.10;99.90
5344;DHT22;2694;48.954;8.928;2023-07-31T06:11:45;18.40;99.90
5344;DHT22;2694;48.954;8.928;2023-07-31T06:14:12;18.70;99.90
5344;DHT22;2694;48.954;8.928;2023-07-31T06:16:41;19.00;99.90
5344;DHT22;2694;48.954;8.928;2023-07-31T06:19:09;19.20;99.90
5344;DHT22;2694;48.954;8.928;2023-07-31T06:21:36;19.30;99.90
5344;DHT22;2694;48.954;8.928;2023-07-31T06:24:04;19.30;99.90
5344;DHT22;2694;48.954;8.928;2023-07-31T06:26:31;19.30;99.90
5344;DHT22;2694;48.954;8.928;2023-07-31T06:28:58;19.30;99.90
5344;DHT22;2694;48.954;8.928;2023-07-31T06:31:25;19.50;99.90
5344;DHT22;2694;48.954;8.928;2023-07-31T06:33:53;19.60;99.90
5344;DHT22;2694;48.954;8.928;2023-07-31T06:36:20;20.00;99.90
5344;DHT22;2694;48.954;8.928;2023-07-31T06:38:47;20.20;99.90
5344;DHT22;2694;48.954;8.928;2023-07-31T06:41:14;20.30;99.90
5344;DHT22;2694;48.954;8.928;2023-07-31T06:43:41;20.30;99.90
5344;DHT22;2694;48.954;8.928;2023-07-31T06:46:09;20.50;99.90
5344;DHT22;2694;48.954;8.928;2023-07-31T06:48:37;20.60;99.90
5344;DHT22;2694;48.954;8.928;2023-07-31T06:51:05;20.60;99.90
5344;DHT22;2694;48.954;8.928;2023-07-31T06:53:32;20.50;99.90
5344;DHT22;2694;48.954;8.928;2023-07-31T06:55:59;20.50;99.90
5344;DHT22;2694;48.954;8.928;2023-07-31T06:58:26;20.40;99.90
5344;DHT22;2694;48.954;8.928;2023-07-31T07:00:53;20.50;99.90
5344;DHT22;2694;48.954;8.928;2023-07-31T07:03:20;20.50;99.90
5344;DHT22;2694;48.954;8.928;2023-07-31T07:05:47;20.50;99.90
5344;DHT22;2694;48.954;8.928;2023-07-31T07:08:15;20.50;99.90
5344;DHT22;2694;48.954;8.928;2023-07-31T07:10:42;20.60;99.90
5344;DHT22;2694;48.954;8.928;2023-07-31T07:13:09;20.50;99.90
5344;DHT22;2694;48.954;8.928;2023-07-31T07:15:38;20.40;99.90
5344;DHT22;2694;48.954;8.928;2023-07-31T07:18:05;20.40;99.90
5344;DHT22;2694;48.954;8.928;2023-07-31T07:20:32;20.40;99.90
5344;DHT22;2694;48.954;8.928;2023-07-31T07:22:59;20.50;99.90
5344;DHT22;2694;48.954;8.928;2023-07-31T07:25:27;20.50;99.90
5344;DHT22;2694;48.954;8.928;2023-07-31T07:27:54;20.60;99.90
5344;DHT22;2694;48.954;8.928;2023-07-31T07:30:21;20.60;99.90
5344;DHT22;2694;48.954;8.928;2023-07-31T07:32:50;20.60;99.90
5344;DHT22;2694;48.954;8.928;2023-07-31T07:35:17;20.60;99.90
5344;DHT22;2694;48.954;8.928;2023-07-31T07:37:44;20.90;99.90
5344;DHT22;2694;48.954;8.928;2023-07-31T07:40:11;21.20;99.90
5344;DHT22;2694;48.954;8.928;2023-07-31T07:42:39;21.30;99.90
5344;DHT22;2694;48.954;8.928;2023-07-31T07:45:07;21.50;99.90
5344;DHT22;2694;48.954;8.928;2023-07-31T07:47:34;21.40;99.90
5344;DHT22;2694;48.954;8.928;2023-07-31T07:50:01;21.20;99.90
5344;DHT22;2694;48.954;8.928;2023-07-31T07:52:28;21.20;99.90
5344;DHT22;2694;48.954;8.928;2023-07-31T07:54:55;21.20;99.90
5344;DHT22;2694;48.954;8.928;2023-07-31T07:57:22;21.20;99.90
5344;DHT22;2694;48.954;8.928;2023-07-31T07:59:50;21.30;99.90
5344;DHT22;2694;48.954;8.928;2023-07-31T08:02:18;21.50;99.90
5344;DHT22;2694;48.954;8.928;2023-07-31T08:04:44;21.60;99.90
5344;DHT22;2694;48.954;8.928;2023-07-31T08:07:12;22.00;99.90
5344;DHT22;2694;48.954;8.928;2023-07-31T08:09:39;21.70;99.90
5344;DHT22;2694;48.954;8.928;2023-07-31T08:12:07;21.80;99.90
5344;DHT22;2694;48.954;8.928;2023-07-31T08:14:34;21.80;99.90
5344;DHT22;2694;48.954;8.928;2023-07-31T08:17:03;21.70;99.90
5344;DHT22;2694;48.954;8.928;2023-07-31T08:19:30;21.80;99.90
5344;DHT22;2694;48.954;8.928;2023-07-31T08:21:57;21.80;99.90
5344;DHT22;2694;48.954;8.928;2023-07-31T08:24:24;21.90;99.90
5344;DHT22;2694;48.954;8.928;2023-07-31T08:26:51;22.00;99.90
5344;DHT22;2694;48.954;8.928;2023-07-31T08:29:18;21.80;99.90
5344;DHT22;2694;48.954;8.928;2023-07-31T08:31:45;21.70;99.90
5344;DHT22;2694;48.954;8.928;2023-07-31T08:34:13;21.50;99.90
5344;DHT22;2694;48.954;8.928;2023-07-31T08:36:40;21.50;99.90
5344;DHT22;2694;48.954;8.928;2023-07-31T08:39:07;21.20;99.90
5344;DHT22;2694;48.954;8.928;2023-07-31T08:41:37;21.30;99.90
5344;DHT22;2694;48.954;8.928;2023-07-31T08:44:06;21.40;99.90
5344;DHT22;2694;48.954;8.928;2023-07-31T08:46:34;21.50;99.90
5344;DHT22;2694;48.954;8.928;2023-07-31T08:49:03;21.50;99.90
5344;DHT22;2694;48.954;8.928;2023-07-31T08:51:33;21.50;99.90
5344;DHT22;2694;48.954;8.928;2023-07-31T08:54:00;21.70;99.90
5344;DHT22;2694;48.954;8.928;2023-07-31T08:56:30;22.00;99.90
5344;DHT22;2694;48.954;8.928;2023-07-31T08:58:59;22.10;99.90
5344;DHT22;2694;48.954;8.928;2023-07-31T09:01:29;22.00;99.90
5344;DHT22;2694;48.954;8.928;2023-07-31T09:03:58;22.00;99.90
5344;DHT22;2694;48.954;8.928;2023-07-31T09:06:28;23.70;99.90
5344;DHT22;2694;48.954;8.928;2023-07-31T09:08:57;22.00;99.90
5344;DHT22;2694;48.954;8.928;2023-07-31T09:11:25;22.10;99.90
5344;DHT22;2694;48.954;8.928;2023-07-31T09:13:57;22.20;99.90
5344;DHT22;2694;48.954;8.928;2023-07-31T09:16:27;22.30;99.90
5344;DHT22;2694;48.954;8.928;2023-07-31T09:18:56;22.30;99.90
5344;DHT22;2694;48.954;8.928;2023-07-31T09:21:24;22.70;99.90
5344;DHT22;2694;48.954;8.928;2023-07-31T09:23:53;22.70;99.90
5344;DHT22;2694;48.954;8.928;2023-07-31T09:26:32;22.50;99.90
5344;DHT22;2694;48.954;8.928;2023-07-31T09:29:00;22.50;99.90
5344;DHT22;2694;48.954;8.928;2023-07-31T09:31:37;22.40;99.90
5344;DHT22;2694;48.954;8.928;2023-07-31T09:34:04;22.40;99.90
5344;DHT22;2694;48.954;8.928;2023-07-31T09:36:31;22.50;99.90
5344;DHT22;2694;48.954;8.928;2023-07-31T09:39:02;22.70;99.90
5344;DHT22;2694;48.954;8.928;2023-07-31T09:41:31;22.50;99.90
5344;DHT22;2694;48.954;8.928;2023-07-31T09:43:58;22.40;99.90
5344;DHT22;2694;48.954;8.928;2023-07-31T09:46:27;22.30;99.90
5344;DHT22;2694;48.954;8.928;2023-07-31T09:49:06;22.30;99.90
5344;DHT22;2694;48.954;8.928;2023-07-31T09:51:34;22.40;99.90
5344;DHT22;2694;48.954;8.928;2023-07-31T09:54:08;22.30;99.90
5344;DHT22;2694;48.954;8.928;2023-07-31T09:56:41;22.40;99.90
5344;DHT22;2694;48.954;8.928;2023-07-31T09:59:11;22.40;99.90
5344;DHT22;2694;48.954;8.928;2023-07-31T10:01:39;22.40;99.90
5344;DHT22;2694;48.954;8.928;2023-07-31T10:04:07;22.50;99.90
5344;DHT22;2694;48.954;8.928;2023-07-31T10:06:35;22.50;99.90
5344;DHT22;2694;48.954;8.928;2023-07-31T10:09:06;22.60;99.90
5344;DHT22;2694;48.954;8.928;2023-07-31T10:11:37;22.80;99.90
5344;DHT22;2694;48.954;8.928;2023-07-31T10:14:07;22.70;99.90
5344;DHT22;2694;48.954;8.928;2023-07-31T10:16:37;22.70;99.90
5344;DHT22;2694;48.954;8.928;2023-07-31T10:19:05;22.70;99.90
5344;DHT22;2694;48.954;8.928;2023-07-31T10:21:34;22.70;99.90
5344;DHT22;2694;48.954;8.928;2023-07-31T10:24:03;22.60;99.90
5344;DHT22;2694;48.954;8.928;2023-07-31T10:26:32;22.70;99.90
5344;DHT22;2694;48.954;8.928;2023-07-31T10:28:59;22.70;99.90
5344;DHT22;2694;48.954;8.928;2023-07-31T10:31:29;22.70;99.90
5344;DHT22;2694;48.954;8.928;2023-07-31T10:33:57;22.80;99.90
5344;DHT22;2694;48.954;8.928;2023-07-31T10:36:25;22.80;99.90
5344;DHT22;2694;48.954;8.928;2023-07-31T10:38:52;22.80;99.90
5344;DHT22;2694;48.954;8.928;2023-07-31T10:41:28;22.70;99.90
5344;DHT22;2694;48.954;8.928;2023-07-31T10:43:57;23.00;99.90
5344;DHT22;2694;48.954;8.928;2023-07-31T10:46:24;23.50;99.90
5344;DHT22;2694;48.954;8.928;2023-07-31T10:48:59;23.90;99.40
5344;DHT22;2694;48.954;8.928;2023-07-31T10:51:37;24.20;99.40
5344;DHT22;2694;48.954;8.928;2023-07-31T10:54:14;24.20;98.80
5344;DHT22;2694;48.954;8.928;2023-07-31T10:56:45;24.00;98.90
5344;DHT22;2694;48.954;8.928;2023-07-31T10:59:12;23.30;99.30
5344;DHT22;2694;48.954;8.928;2023-07-31T11:01:52;23.20;99.30
5344;DHT22;2694;48.954;8.928;2023-07-31T11:04:24;23.30;99.40
5344;DHT22;2694;48.954;8.928;2023-07-31T11:06:56;23.20;99.40
5344;DHT22;2694;48.954;8.928;2023-07-31T11:09:24;23.00;99.20
5344;DHT22;2694;48.954;8.928;2023-07-31T11:11:53;23.10;99.60
5344;DHT22;2694;48.954;8.928;2023-07-31T11:14:20;23.30;99.70
5344;DHT22;2694;48.954;8.928;2023-07-31T11:16:50;23.80;99.20
5344;DHT22;2694;48.954;8.928;2023-07-31T11:19:21;23.90;98.70
5344;DHT22;2694;48.954;8.928;2023-07-31T11:21:51;23.80;98.50
5344;DHT22;2694;48.954;8.928;2023-07-31T11:24:18;23.60;98.40
5344;DHT22;2694;48.954;8.928;2023-07-31T11:26:49;23.60;99.40
5344;DHT22;2694;48.954;8.928;2023-07-31T11:29:17;23.60;99.00
5344;DHT22;2694;48.954;8.928;2023-07-31T11:31:44;23.60;99.00
5344;DHT22;2694;48.954;8.928;2023-07-31T11:34:12;23.40;99.10
5344;DHT22;2694;48.954;8.928;2023-07-31T11:36:39;23.40;99.30
5344;DHT22;2694;48.954;8.928;2023-07-31T11:39:08;23.60;99.80
5344;DHT22;2694;48.954;8.928;2023-07-31T11:41:36;24.20;99.50
5344;DHT22;2694;48.954;8.928;2023-07-31T11:44:03;24.40;99.20
5344;DHT22;2694;48.954;8.928;2023-07-31T11:46:30;24.60;99.00
5344;DHT22;2694;48.954;8.928;2023-07-31T11:48:59;24.80;98.50
5344;DHT22;2694;48.954;8.928;2023-07-31T11:51:27;25.10;98.30
5344;DHT22;2694;48.954;8.928;2023-07-31T11:53:58;25.00;98.60
5344;DHT22;2694;48.954;8.928;2023-07-31T11:56:31;24.80;98.60
5344;DHT22;2694;48.954;8.928;2023-07-31T11:58:59;24.50;98.70
5344;DHT22;2694;48.954;8.928;2023-07-31T12:01:29;24.60;98.50
5344;DHT22;2694;48.954;8.928;2023-07-31T12:03:56;24.40;98.90
5344;DHT22;2694;48.954;8.928;2023-07-31T12:06:32;24.10;98.20
5344;DHT22;2694;48.954;8.928;2023-07-31T12:09:02;24.40;98.50
5344;DHT22;2694;48.954;8.928;2023-07-31T12:11:29;24.50;98.50
5344;DHT22;2694;48.954;8.928;2023-07-31T12:13:57;24.40;98.60
5344;DHT22;2694;48.954;8.928;2023-07-31T12:16:26;24.40;98.50
5344;DHT22;2694;48.954;8.928;2023-07-31T12:18:54;24.70;98.90
5344;DHT22;2694;48.954;8.928;2023-07-31T12:21:21;24.80;98.40
5344;DHT22;2694;48.954;8.928;2023-07-31T12:23:48;24.80;98.30
5344;DHT22;2694;48.954;8.928;2023-07-31T12:26:16;24.60;97.60
5344;DHT22;2694;48.954;8.928;2023-07-31T12:28:45;24.40;98.30
5344;DHT22;2694;48.954;8.928;2023-07-31T12:31:15;24.30;98.60
5344;DHT22;2694;48.954;8.928;2023-07-31T12:33:44;24.60;98.40
5344;DHT22;2694;48.954;8.928;2023-07-31T12:36:12;24.60;98.20
5344;DHT22;2694;48.954;8.928;2023-07-31T12:38:40;24.50;98.20
5344;DHT22;2694;48.954;8.928;2023-07-31T12:41:07;24.40;98.70
5344;DHT22;2694;48.954;8.928;2023-07-31T12:43:34;24.60;98.50
5344;DHT22;2694;48.954;8.928;2023-07-31T12:46:04;24.50;99.20
5344;DHT22;2694;48.954;8.928;2023-07-31T12:48:32;24.40;98.90
5344;DHT22;2694;48.954;8.928;2023-07-31T12:50:59;24.30;98.90
5344;DHT22;2694;48.954;8.928;2023-07-31T12:53:26;24.20;99.10
5344;DHT22;2694;48.954;8.928;2023-07-31T12:55:53;24.10;99.30
5344;DHT22;2694;48.954;8.928;2023-07-31T12:58:20;24.10;99.30
5344;DHT22;2694;48.954;8.928;2023-07-31T13:00:47;23.90;98.40
5344;DHT22;2694;48.954;8.928;2023-07-31T13:03:14;24.00;98.80
5344;DHT22;2694;48.954;8.928;2023-07-31T13:05:43;24.10;98.80
5344;DHT22;2694;48.954;8.928;2023-07-31T13:08:10;24.30;98.70
5344;DHT22;2694;48.954;8.928;2023-07-31T13:10:37;24.60;98.40
5344;DHT22;2694;48.954;8.928;2023-07-31T13:13:04;24.70;98.80
5344;DHT22;2694;48.954;8.928;2023-07-31T13:15:31;24.50;98.00
5344;DHT22;2694;48.954;8.928;2023-07-31T13:17:58;24.20;98.50
5344;DHT22;2694;48.954;8.928;2023-07-31T13:20:25;24.20;98.00
5344;DHT22;2694;48.954;8.928;2023-07-31T13:22:53;24.50;99.10
5344;DHT22;2694;48.954;8.928;2023-07-31T13:25:20;24.70;98.10
5344;DHT22;2694;48.954;8.928;2023-07-31T13:27:47;24.50;98.30
5344;DHT22;2694;48.954;8.928;2023-07-31T13:30:14;24.30;98.40
5344;DHT22;2694;48.954;8.928;2023-07-31T13:32:41;24.10;98.90
5344;DHT22;2694;48.954;8.928;2023-07-31T13:35:08;24.10;98.90
5344;DHT22;2694;48.954;8.928;2023-07-31T13:37:37;24.00;99.60
5344;DHT22;2694;48.954;8.928;2023-07-31T13:40:06;24.10;99.20
5344;DHT22;2694;48.954;8.928;2023-07-31T13:42:33;24.20;99.20
5344;DHT22;2694;48.954;8.928;2023-07-31T13:45:00;24.20;98.80
5344;DHT22;2694;48.954;8.928;2023-07-31T13:47:27;24.20;98.90
5344;DHT22;2694;48.954;8.928;2023-07-31T13:49:56;24.30;99.40
5344;DHT22;2694;48.954;8.928;2023-07-31T13:52:23;24.50;99.20
5344;DHT22;2694;48.954;8.928;2023-07-31T13:54:50;24.50;98.60
5344;DHT22;2694;48.954;8.928;2023-07-31T13:57:18;24.40;99.40
5344;DHT22;2694;48.954;8.928;2023-07-31T13:59:45;24.40;98.50
5344;DHT22;2694;48.954;8.928;2023-07-31T14:02:12;24.00;98.80
5344;DHT22;2694;48.954;8.928;2023-07-31T14:04:40;24.00;99.10
5344;DHT22;2694;48.954;8.928;2023-07-31T14:07:07;23.80;99.00
5344;DHT22;2694;48.954;8.928;2023-07-31T14:09:34;23.80;99.10
5344;DHT22;2694;48.954;8.928;2023-07-31T14:12:01;23.90;99.30
5344;DHT22;2694;48.954;8.928;2023-07-31T14:14:29;24.20;99.40
5344;DHT22;2694;48.954;8.928;2023-07-31T14:16:56;24.20;99.40
5344;DHT22;2694;48.954;8.928;2023-07-31T14:19:23;24.40;99.00
5344;DHT22;2694;48.954;8.928;2023-07-31T14:21:50;24.40;99.00
5344;DHT22;2694;48.954;8.928;2023-07-31T14:24:17;24.20;99.10
5344;DHT22;2694;48.954;8.928;2023-07-31T14:26:44;24.20;99.40
5344;DHT22;2694;48.954;8.928;2023-07-31T14:29:11;24.40;99.80
5344;DHT22;2694;48.954;8.928;2023-07-31T14:31:39;24.40;99.30
5344;DHT22;2694;48.954;8.928;2023-07-31T14:34:06;24.10;99.20
5344;DHT22;2694;48.954;8.928;2023-07-31T14:36:33;24.00;99.50
5344;DHT22;2694;48.954;8.928;2023-07-31T14:39:00;24.00;99.30
5344;DHT22;2694;48.954;8.928;2023-07-31T14:41:27;24.00;99.00
5344;DHT22;2694;48.954;8.928;2023-07-31T14:43:54;23.70;98.90
5344;DHT22;2694;48.954;8.928;2023-07-31T14:46:21;23.40;99.40
5344;DHT22;2694;48.954;8.928;2023-07-31T14:48:50;23.40;99.40
5344;DHT22;2694;48.954;8.928;2023-07-31T14:51:17;23.30;99.40
5344;DHT22;2694;48.954;8.928;2023-07-31T14:53:44;23.20;99.90
5344;DHT22;2694;48.954;8.928;2023-07-31T14:56:12;23.10;99.80
5344;DHT22;2694;48.954;8.928;2023-07-31T14:58:39;22.90;99.80
5344;DHT22;2694;48.954;8.928;2023-07-31T15:01:06;22.90;99.90
5344;DHT22;2694;48.954;8.928;2023-07-31T15:03:33;22.80;99.90
5344;DHT22;2694;48.954;8.928;2023-07-31T15:06:01;22.90;99.90
5344;DHT22;2694;48.954;8.928;2023-07-31T15:08:30;23.00;99.90
5344;DHT22;2694;48.954;8.928;2023-07-31T15:10:57;23.20;99.90
5344;DHT22;2694;48.954;8.928;2023-07-31T15:13:24;23.40;99.80
5344;DHT22;2694;48.954;8.928;2023-07-31T15:15:51;23.60;99.90
5344;DHT22;2694;48.954;8.928;2023-07-31T15:18:18;23.80;99.90
5344;DHT22;2694;48.954;8.928;2023-07-31T15:20:45;23.80;99.50
5344;DHT22;2694;48.954;8.928;2023-07-31T15:23:13;24.10;99.50
5344;DHT22;2694;48.954;8.928;2023-07-31T15:25:41;23.90;99.10
5344;DHT22;2694;48.954;8.928;2023-07-31T15:28:08;23.80;99.50
5344;DHT22;2694;48.954;8.928;2023-07-31T15:30:35;23.80;99.80
5344;DHT22;2694;48.954;8.928;2023-07-31T15:33:03;23.70;99.20
5344;DHT22;2694;48.954;8.928;2023-07-31T15:35:30;23.60;99.90
5344;DHT22;2694;48.954;8.928;2023-07-31T15:37:56;23.60;99.90
5344;DHT22;2694;48.954;8.928;2023-07-31T15:40:25;23.50;99.50
5344;DHT22;2694;48.954;8.928;2023-07-31T15:42:52;23.60;99.90
5344;DHT22;2694;48.954;8.928;2023-07-31T15:45:19;23.60;99.90
5344;DHT22;2694;48.954;8.928;2023-07-31T15:47:46;23.70;99.90
5344;DHT22;2694;48.954;8.928;2023-07-31T15:50:13;23.60;99.90
5344;DHT22;2694;48.954;8.928;2023-07-31T15:52:40;23.60;99.90
5344;DHT22;2694;48.954;8.928;2023-07-31T15:55:10;23.90;99.90
5344;DHT22;2694;48.954;8.928;2023-07-31T15:57:41;23.80;99.90
5344;DHT22;2694;48.954;8.928;2023-07-31T16:00:09;23.70;99.90
5344;DHT22;2694;48.954;8.928;2023-07-31T16:02:36;23.60;99.90
5344;DHT22;2694;48.954;8.928;2023-07-31T16:05:03;23.50;99.90
5344;DHT22;2694;48.954;8.928;2023-07-31T16:07:31;23.30;99.90